createdAt,value
2019-01-20T00:01:22.114Z,28.53
2019-01-20T00:06:23.628Z,35.23
2019-01-20T00:11:25.290Z,31.33
2019-01-20T00:16:26.575Z,27.57
2019-01-20T00:21:27.862Z,32.40
2019-01-20T00:26:29.139Z,32.97
2019-01-20T00:31:30.789Z,31.63
2019-01-20T00:36:32.072Z,26.70
2019-01-20T00:41:33.338Z,32.10
2019-01-20T00:46:34.613Z,30.37
2019-01-20T00:51:36.269Z,32.13
2019-01-20T00:56:37.557Z,31.50
2019-01-20T01:01:38.858Z,30.57
2019-01-20T01:06:40.131Z,35.77
2019-01-20T01:11:41.734Z,29.97
2019-01-20T01:16:42.992Z,30.60
2019-01-20T01:21:44.329Z,36.07
2019-01-20T01:26:45.549Z,33.20
2019-01-20T01:31:46.820Z,32.97
2019-01-20T01:36:48.095Z,32.83
2019-01-20T01:41:49.367Z,36.40
2019-01-20T01:46:50.649Z,32.03
2019-01-20T01:51:51.923Z,32.43
2019-01-20T01:56:53.201Z,31.20
2019-01-20T02:01:54.488Z,29.83
2019-01-20T02:06:55.785Z,31.97
2019-01-20T02:11:57.472Z,29.93
2019-01-20T02:16:59.067Z,31.63
2019-01-20T02:22:00.347Z,31.30
2019-01-20T02:27:01.621Z,29.23
2019-01-20T02:32:03.939Z,31.37
2019-01-20T02:37:05.546Z,32.13
2019-01-20T02:42:07.159Z,32.10
2019-01-20T02:47:08.446Z,36.53
2019-01-20T02:52:09.722Z,32.83
2019-01-20T02:57:11.001Z,30.50
2019-01-20T03:02:12.405Z,29.00
2019-01-20T03:07:13.689Z,32.70
2019-01-20T03:12:14.981Z,33.20
2019-01-20T03:17:16.613Z,30.63
2019-01-20T03:22:17.896Z,30.13
2019-01-20T03:27:19.175Z,32.13
2019-01-20T03:32:20.470Z,29.60
2019-01-20T03:37:21.758Z,31.33
2019-01-20T03:42:23.029Z,29.93
2019-01-20T03:47:24.305Z,30.13
2019-01-20T03:52:25.943Z,33.23
2019-01-20T03:57:27.225Z,31.87
2019-01-20T04:02:28.546Z,35.57
2019-01-20T04:07:29.824Z,37.30
2019-01-20T04:12:31.114Z,34.20
2019-01-20T04:17:32.403Z,35.77
2019-01-20T04:22:33.676Z,32.93
2019-01-20T04:27:35.321Z,33.63
2019-01-20T04:32:39.193Z,32.63
2019-01-20T04:37:40.469Z,29.37
2019-01-20T04:42:41.749Z,28.30
2019-01-20T04:47:43.385Z,29.50
2019-01-20T04:52:44.643Z,29.20
2019-01-20T04:57:47.851Z,28.57
2019-01-20T05:02:49.164Z,34.13
2019-01-20T05:07:50.445Z,28.57
2019-01-20T05:12:52.029Z,25.03
2019-01-20T05:17:53.619Z,31.70
2019-01-20T05:22:54.892Z,29.67
2019-01-20T05:27:56.173Z,31.73
2019-01-20T05:32:57.434Z,28.40
2019-01-20T05:37:58.716Z,28.40
2019-01-20T05:42:59.992Z,28.27
2019-01-20T05:48:01.286Z,32.07
2019-01-20T05:53:02.579Z,31.20
2019-01-20T05:58:03.860Z,29.80
2019-01-20T06:03:05.161Z,31.93
2019-01-20T06:08:06.435Z,31.73
2019-01-20T06:13:07.712Z,30.90
2019-01-20T06:18:09.177Z,31.83
2019-01-20T06:23:10.453Z,29.87
2019-01-20T06:28:12.088Z,27.90
2019-01-20T06:33:13.667Z,32.43
2019-01-20T06:38:14.957Z,28.90
2019-01-20T06:43:16.226Z,31.70
2019-01-20T06:48:17.496Z,27.27
2019-01-20T06:53:19.142Z,28.80
2019-01-20T06:58:20.747Z,29.87
2019-01-20T07:03:22.077Z,30.47
2019-01-20T07:08:23.373Z,32.33
2019-01-20T07:13:24.690Z,35.90
2019-01-20T07:18:25.969Z,32.47
2019-01-20T07:23:27.601Z,37.13
2019-01-20T07:28:28.977Z,38.93
2019-01-20T07:33:30.241Z,39.50
2019-01-20T07:38:31.524Z,35.17
2019-01-20T07:43:32.801Z,33.77
2019-01-20T07:48:35.079Z,31.97
2019-01-20T07:53:38.240Z,33.97
2019-01-20T07:58:39.512Z,32.77
2019-01-20T08:03:41.129Z,39.10
2019-01-20T08:08:42.406Z,40.60
2019-01-20T08:13:43.681Z,40.00
2019-01-20T08:18:44.965Z,38.00
2019-01-20T08:23:46.238Z,37.10
2019-01-20T08:28:47.513Z,39.60
2019-01-20T08:33:48.786Z,40.20
2019-01-20T08:38:50.060Z,37.13
2019-01-20T08:43:51.337Z,34.03
2019-01-20T08:48:52.726Z,34.17
2019-01-20T08:53:53.992Z,34.60
2019-01-20T08:58:55.272Z,34.97
2019-01-20T09:03:56.573Z,37.20
2019-01-20T09:08:57.840Z,35.87
2019-01-20T09:13:59.117Z,34.03
2019-01-20T09:19:00.394Z,34.20
2019-01-20T09:24:01.662Z,37.73
2019-01-20T09:29:03.285Z,40.43
2019-01-20T09:34:04.557Z,36.73
2019-01-20T09:39:09.336Z,37.70
2019-01-20T09:44:10.598Z,40.92
2019-01-20T09:49:11.873Z,39.10
2019-01-20T09:54:13.153Z,39.23
2019-01-20T09:59:14.434Z,37.90
2019-01-20T10:04:16.056Z,39.27
2019-01-20T10:09:17.328Z,44.23
2019-01-20T10:14:18.613Z,44.53
2019-01-20T10:19:19.893Z,45.97
2019-01-20T10:24:21.171Z,43.60
2019-01-20T10:29:22.809Z,45.60
2019-01-20T10:34:24.100Z,47.00
2019-01-20T10:39:25.398Z,45.37
2019-01-20T10:44:26.657Z,46.67
2019-01-20T10:49:27.929Z,43.70
2019-01-20T10:54:29.545Z,47.33
2019-01-20T10:59:31.808Z,38.63
2019-01-20T11:04:33.017Z,41.33
2019-01-20T11:09:34.303Z,40.23
2019-01-20T11:14:35.583Z,39.57
2019-01-20T11:19:36.860Z,46.27
2019-01-20T11:24:38.138Z,39.60
2019-01-20T11:29:39.412Z,42.33
2019-01-20T11:34:40.685Z,44.53
2019-01-20T11:39:42.252Z,37.93
2019-01-20T11:44:43.548Z,42.43
2019-01-20T11:49:44.802Z,41.90
2019-01-20T11:54:46.081Z,39.73
2019-01-20T11:59:47.356Z,34.57
2019-01-20T12:04:48.653Z,37.37
2019-01-20T12:09:49.953Z,36.70
2019-01-20T12:14:51.605Z,38.70
2019-01-20T12:19:52.873Z,38.57
2019-01-20T12:24:54.144Z,39.87
2019-01-20T12:29:55.426Z,40.33
2019-01-20T12:34:56.692Z,43.65
2019-01-20T12:39:57.969Z,44.83
2019-01-20T12:44:59.622Z,50.37
2019-01-20T12:50:01.321Z,45.07
2019-01-20T12:55:03.947Z,44.87
2019-01-20T13:00:09.026Z,42.00
2019-01-20T13:05:23.661Z,47.40
2019-01-20T13:10:25.040Z,46.27
2019-01-20T13:15:26.444Z,40.90
2019-01-20T13:20:27.827Z,45.33
2019-01-20T13:25:29.110Z,44.40
2019-01-20T13:30:30.378Z,42.90
2019-01-20T13:35:31.786Z,43.57
2019-01-20T13:40:39.594Z,44.60
2019-01-20T13:45:40.873Z,41.90
2019-01-20T13:50:42.152Z,45.50
2019-01-20T13:55:43.427Z,40.73
2019-01-20T14:00:44.700Z,42.87
2019-01-20T14:05:46.289Z,50.37
2019-01-20T14:10:47.576Z,46.57
2019-01-20T14:15:48.835Z,42.17
2019-01-20T14:20:50.116Z,41.70
2019-01-20T14:25:51.382Z,48.20
2019-01-20T14:30:52.659Z,54.03
2019-01-20T14:35:53.928Z,49.37
2019-01-20T14:40:55.196Z,44.20
2019-01-20T14:45:56.882Z,45.93
2019-01-20T14:50:58.169Z,41.63
2019-01-20T14:56:00.232Z,43.03
2019-01-20T15:01:01.505Z,50.93
2019-01-20T15:06:03.181Z,48.57
2019-01-20T15:11:04.465Z,47.57
2019-01-20T15:16:05.761Z,45.23
2019-01-20T15:21:07.046Z,48.10
2019-01-20T15:26:08.304Z,49.50
2019-01-20T15:31:09.573Z,54.30
2019-01-20T15:36:10.876Z,55.03
2019-01-20T15:41:12.469Z,57.78
2019-01-20T15:46:13.870Z,50.03
2019-01-20T15:51:15.141Z,55.63
2019-01-20T15:56:16.784Z,49.73
2019-01-20T16:01:18.052Z,49.23
2019-01-20T16:06:19.354Z,52.80
2019-01-20T16:11:20.638Z,50.60
2019-01-20T16:16:21.915Z,48.73
2019-01-20T16:21:23.189Z,53.03
2019-01-20T16:26:24.461Z,52.33
2019-01-20T16:31:26.078Z,54.90
2019-01-20T16:36:27.360Z,55.93
2019-01-20T16:41:29.034Z,57.17
2019-01-20T16:46:30.305Z,60.78
2019-01-20T16:51:31.580Z,58.40
2019-01-20T16:56:32.859Z,57.83
2019-01-20T17:01:34.133Z,61.63
2019-01-20T17:06:35.477Z,56.53
2019-01-20T17:11:36.768Z,57.03
2019-01-20T17:16:38.060Z,62.70
2019-01-20T17:21:39.320Z,56.97
2019-01-20T17:26:40.605Z,61.50
2019-01-20T17:31:42.192Z,62.90
2019-01-20T17:36:43.466Z,67.70
2019-01-20T17:41:45.071Z,61.17
2019-01-20T17:46:46.353Z,63.03
2019-01-20T17:51:47.620Z,68.67
2019-01-20T17:56:48.886Z,69.03
2019-01-20T18:01:50.159Z,76.70
2019-01-20T18:06:51.458Z,74.63
2019-01-20T18:11:53.095Z,98.37
2019-01-20T18:16:54.357Z,69.70
2019-01-20T18:21:55.633Z,68.23
2019-01-20T18:26:56.914Z,70.33
2019-01-20T18:31:58.180Z,68.20
2019-01-20T18:36:59.440Z,73.67
2019-01-20T18:42:00.720Z,67.83
2019-01-20T18:47:01.996Z,73.47
2019-01-20T18:52:03.684Z,73.13
2019-01-20T18:57:04.924Z,69.73
2019-01-20T19:02:06.208Z,78.60
2019-01-20T19:07:07.507Z,74.60
2019-01-20T19:12:08.797Z,70.83
2019-01-20T19:17:10.065Z,74.10
2019-01-20T19:22:14.939Z,74.33
2019-01-20T19:27:14.816Z,64.67
2019-01-20T19:32:16.108Z,71.20
2019-01-20T19:37:17.987Z,69.17
2019-01-20T19:42:19.304Z,68.60
2019-01-20T19:47:20.597Z,74.23
2019-01-20T19:52:21.873Z,76.33
2019-01-20T19:57:23.155Z,72.47
2019-01-20T20:02:24.747Z,70.97
2019-01-20T20:07:26.351Z,77.67
2019-01-20T20:12:27.637Z,76.93
2019-01-20T20:17:30.126Z,74.17
2019-01-20T20:22:32.372Z,79.90
2019-01-20T20:27:33.577Z,74.80
2019-01-20T20:32:34.862Z,80.60
2019-01-20T20:37:36.214Z,81.93
2019-01-20T20:42:37.481Z,78.73
2019-01-20T20:47:38.766Z,82.60
2019-01-20T20:52:45.999Z,79.40
2019-01-20T20:57:43.528Z,80.67
2019-01-20T21:02:44.840Z,76.00
2019-01-20T21:07:46.105Z,80.57
2019-01-20T21:12:47.393Z,87.13
2019-01-20T21:17:48.762Z,78.40
2019-01-20T21:22:50.481Z,77.23
2019-01-20T21:27:51.724Z,79.67
2019-01-20T21:32:53.001Z,78.47
2019-01-20T21:37:54.707Z,80.50
2019-01-20T21:42:55.921Z,83.80
2019-01-20T21:47:57.200Z,86.07
2019-01-20T21:52:58.482Z,78.97
2019-01-20T21:57:59.774Z,69.83
2019-01-20T22:03:01.444Z,78.63
2019-01-20T22:08:02.713Z,74.67
2019-01-20T22:13:04.350Z,69.97
2019-01-20T22:18:05.778Z,79.50
2019-01-20T22:23:07.001Z,78.87
2019-01-20T22:28:08.282Z,69.87
2019-01-20T22:33:09.825Z,74.87
2019-01-20T22:38:11.087Z,72.97
2019-01-20T22:43:12.371Z,72.13
2019-01-20T22:48:13.652Z,70.47
2019-01-20T22:53:14.924Z,70.87
2019-01-20T22:58:16.580Z,68.63
2019-01-20T23:03:17.997Z,67.90
2019-01-20T23:08:19.305Z,64.90
2019-01-20T23:13:20.610Z,68.60
2019-01-20T23:18:22.277Z,75.37
2019-01-20T23:23:23.548Z,68.43
2019-01-20T23:28:24.821Z,75.97
2019-01-20T23:33:26.101Z,70.80
2019-01-20T23:38:27.374Z,70.73
2019-01-20T23:43:28.648Z,68.33
2019-01-20T23:48:30.297Z,68.10
2019-01-20T23:53:31.586Z,75.60
2019-01-20T23:58:32.859Z,64.50
